Time;durP1;ratioP1;P1;durP2;ratioP2;P2;SDS_P1;SDS_P2;PMS_P1;PMS_P2;Temp;Humidity;BMP_temperature;BMP_pressure;BME280_temperature;BME280_humidity;BME280_pressure;Samples;Min_cycle;Max_cycle;Signal;HPM_P1;HPM_P2
2022/07/14 00:00:12;;;;;;;1.55;0.90;;;21.70;66.90;;;;;;5053218;28;20808;-74
2022/07/14 00:02:38;;;;;;;1.70;0.93;;;21.60;67.00;;;;;;5053633;28;20205;-74
2022/07/14 00:05:03;;;;;;;0.90;0.90;;;21.60;67.10;;;;;;5052944;28;20653;-73
2022/07/14 00:07:29;;;;;;;2.47;0.90;;;21.60;67.30;;;;;;5053186;28;20185;-72
2022/07/14 00:09:54;;;;;;;2.83;0.95;;;21.60;67.50;;;;;;5052035;28;20181;-72
2022/07/14 00:12:20;;;;;;;1.13;0.82;;;21.60;67.60;;;;;;5053574;28;20703;-72
2022/07/14 00:14:46;;;;;;;1.67;0.77;;;21.60;67.80;;;;;;5041412;28;20193;-73
2022/07/14 00:17:11;;;;;;;1.67;0.85;;;21.50;67.90;;;;;;5043488;28;20184;-73
2022/07/14 00:19:37;;;;;;;0.80;0.80;;;21.50;68.00;;;;;;5052313;28;20268;-73
2022/07/14 00:22:02;;;;;;;1.58;0.90;;;21.50;67.50;;;;;;5052931;28;20335;-73
2022/07/14 00:24:28;;;;;;;0.93;0.93;;;21.50;67.40;;;;;;5053437;28;20177;-72
2022/07/14 00:26:53;;;;;;;0.70;0.70;;;21.50;68.20;;;;;;5053406;28;20195;-72
2022/07/14 00:29:19;;;;;;;1.10;0.80;;;21.50;68.40;;;;;;5053337;28;20178;-72
2022/07/14 00:31:44;;;;;;;2.90;1.70;;;21.40;68.90;;;;;;5053060;28;20193;-72
2022/07/14 00:34:10;;;;;;;23.02;9.85;;;21.40;69.90;;;;;;5053147;28;20178;-72
2022/07/14 00:36:35;;;;;;;31.30;11.45;;;21.30;70.90;;;;;;5052102;28;20317;-73
2022/07/14 00:39:01;;;;;;;29.55;12.63;;;21.30;71.70;;;;;;5052679;28;20177;-72
2022/07/14 00:41:27;;;;;;;40.72;15.93;;;21.20;71.90;;;;;;5052327;28;20221;-72
2022/07/14 00:43:52;;;;;;;35.25;13.65;;;21.10;72.80;;;;;;5053100;28;20173;-72
2022/07/14 00:46:18;;;;;;;64.65;23.77;;;21.10;73.30;;;;;;5050630;28;20205;-73
2022/07/14 00:48:43;;;;;;;49.67;17.58;;;21.10;73.40;;;;;;5052008;28;20291;-73
2022/07/14 00:51:09;;;;;;;49.70;16.63;;;21.00;74.20;;;;;;5052540;28;20181;-73
2022/07/14 00:53:34;;;;;;;38.85;14.65;;;20.90;74.40;;;;;;5052426;28;20268;-73
2022/07/14 00:56:00;;;;;;;30.88;12.65;;;20.90;74.80;;;;;;5050824;28;20664;-73
2022/07/14 00:58:25;;;;;;;36.60;12.63;;;20.90;75.10;;;;;;5052508;28;20178;-73
2022/07/14 01:00:51;;;;;;;57.72;19.33;;;20.80;75.20;;;;;;5052730;28;20232;-73
2022/07/14 01:03:17;;;;;;;72.65;24.63;;;20.70;75.50;;;;;;5051308;28;20185;-73
2022/07/14 01:05:42;;;;;;;65.60;20.98;;;20.70;76.10;;;;;;5050328;28;20227;-73
2022/07/14 01:08:08;;;;;;;50.42;17.33;;;20.60;76.50;;;;;;5050902;28;20178;-73
2022/07/14 01:10:34;;;;;;;49.22;17.00;;;20.60;76.60;;;;;;5052318;28;20272;-73
2022/07/14 01:13:02;;;;;;;27.23;9.57;;;20.50;76.70;;;;;;5050593;28;20272;-73
2022/07/14 01:15:28;;;;;;;12.48;5.35;;;20.50;76.60;;;;;;5052195;28;20202;-74
2022/07/14 01:17:53;;;;;;;10.15;3.95;;;20.40;76.80;;;;;;5052094;28;20203;-74
2022/07/14 01:20:19;;;;;;;5.43;2.97;;;20.40;77.10;;;;;;5050694;28;20268;-74
2022/07/14 01:22:48;;;;;;;7.07;3.08;;;20.40;77.20;;;;;;5051878;28;20188;-73
2022/07/14 01:25:19;;;;;;;4.28;2.08;;;20.40;77.60;;;;;;5052054;28;20276;-74
2022/07/14 01:27:45;;;;;;;2.65;1.80;;;20.40;77.80;;;;;;5050797;28;20181;-73
2022/07/14 01:30:11;;;;;;;3.17;2.10;;;20.30;77.60;;;;;;5049912;28;20235;-73
2022/07/14 01:32:37;;;;;;;26.27;8.35;;;20.30;78.20;;;;;;5050495;28;20186;-74
2022/07/14 01:35:06;;;;;;;28.30;8.30;;;20.20;78.50;;;;;;5050518;28;20181;-74
2022/07/14 01:37:32;;;;;;;25.90;10.23;;;20.20;78.60;;;;;;5050766;28;20276;-74
2022/07/14 01:39:58;;;;;;;39.60;12.93;;;20.10;79.00;;;;;;5050123;28;20677;-73
2022/07/14 01:42:23;;;;;;;62.33;20.15;;;20.10;79.30;;;;;;5051006;28;20628;-74
2022/07/14 01:44:49;;;;;;;54.78;18.42;;;20.10;80.00;;;;;;5050536;28;20273;-74
2022/07/14 01:47:14;;;;;;;54.97;18.27;;;20.10;80.80;;;;;;5048377;28;20189;-73
2022/07/14 01:49:40;;;;;;;44.20;16.08;;;20.00;80.40;;;;;;5051611;28;20205;-74
2022/07/14 01:52:06;;;;;;;39.50;13.45;;;20.00;80.70;;;;;;5051493;28;20181;-73
2022/07/14 01:54:32;;;;;;;52.10;18.40;;;19.90;80.80;;;;;;5051609;28;20192;-74
2022/07/14 01:56:57;;;;;;;60.42;20.40;;;19.90;81.40;;;;;;5051560;28;20188;-74
2022/07/14 01:59:23;;;;;;;59.85;19.90;;;19.90;81.60;;;;;;5051825;28;20182;-74
2022/07/14 02:01:50;;;;;;;39.22;13.82;;;19.80;81.70;;;;;;5050921;28;20245;-73
2022/07/14 02:04:17;;;;;;;34.22;12.50;;;19.80;82.10;;;;;;5051759;28;20184;-72
2022/07/14 02:06:51;;;;;;;31.25;11.20;;;19.80;82.40;;;;;;5051036;28;20247;-73
2022/07/14 02:09:18;;;;;;;20.83;7.90;;;19.70;82.70;;;;;;5050969;28;20184;-73
2022/07/14 02:14:30;;;;;;;8.57;3.75;;;19.70;84.00;;;;;;5051440;28;20266;-73
2022/07/14 02:16:56;;;;;;;6.88;3.17;;;19.70;84.30;;;;;;5050639;28;20173;-73
2022/07/14 02:19:24;;;;;;;6.03;2.90;;;19.60;84.60;;;;;;5051171;28;20581;-73
2022/07/14 02:21:50;;;;;;;4.60;2.20;;;19.60;85.30;;;;;;5050724;28;20259;-72
2022/07/14 02:24:15;;;;;;;4.95;2.03;;;19.60;85.70;;;;;;5051170;28;20181;-72
2022/07/14 02:26:43;;;;;;;2.90;1.50;;;19.50;86.20;;;;;;5050093;28;20181;-72
2022/07/14 02:29:09;;;;;;;3.22;1.58;;;19.50;86.70;;;;;;5049120;28;20184;-72
2022/07/14 02:31:35;;;;;;;2.90;1.67;;;19.40;87.50;;;;;;5050106;28;20185;-74
2022/07/14 02:34:02;;;;;;;3.63;2.10;;;19.40;88.20;;;;;;5051503;28;20264;-73
2022/07/14 02:36:28;;;;;;;3.00;1.83;;;19.30;88.80;;;;;;5050920;28;20251;-73
2022/07/14 02:38:53;;;;;;;5.03;1.60;;;19.20;89.40;;;;;;5050967;28;20177;-74
2022/07/14 02:41:19;;;;;;;4.38;1.90;;;19.20;90.10;;;;;;5032594;28;20263;-73
2022/07/14 02:43:45;;;;;;;3.08;1.90;;;19.10;90.30;;;;;;5054553;28;20185;-74
2022/07/14 02:46:10;;;;;;;2.40;1.88;;;19.10;90.70;;;;;;5053092;28;20185;-74
2022/07/14 02:48:36;;;;;;;2.40;1.60;;;19.10;90.90;;;;;;5055170;28;20169;-75
2022/07/14 02:51:09;;;;;;;3.05;1.80;;;19.10;91.20;;;;;;5053447;28;20177;-75
2022/07/14 02:53:35;;;;;;;2.30;1.48;;;19.10;91.50;;;;;;5054826;28;20645;-74
2022/07/14 02:56:02;;;;;;;2.42;1.70;;;19.00;91.50;;;;;;5055510;28;20208;-74
2022/07/14 02:58:27;;;;;;;1.90;1.30;;;19.00;91.60;;;;;;5054987;28;20640;-75
2022/07/14 03:00:53;;;;;;;1.95;1.63;;;18.90;92.00;;;;;;5052935;28;20204;-75
2022/07/14 03:03:20;;;;;;;1.63;1.30;;;18.90;92.20;;;;;;5054740;28;20651;-74
2022/07/14 03:05:46;;;;;;;1.80;1.60;;;18.80;92.40;;;;;;5053482;28;20348;-74
2022/07/14 03:08:12;;;;;;;2.17;1.58;;;18.80;92.70;;;;;;5054588;28;20244;-74
2022/07/14 03:10:38;;;;;;;2.03;1.42;;;18.70;92.90;;;;;;5054411;28;20738;-74
2022/07/14 03:13:03;;;;;;;1.80;1.30;;;18.70;93.30;;;;;;5054246;28;20625;-74
2022/07/14 03:15:29;;;;;;;1.50;1.40;;;18.60;93.70;;;;;;5055806;28;20522;-74
2022/07/14 03:17:54;;;;;;;6.30;2.53;;;18.60;94.00;;;;;;5058135;28;20192;-74
2022/07/14 03:20:20;;;;;;;3.00;2.15;;;18.60;94.20;;;;;;5057081;28;20296;-74
2022/07/14 03:22:45;;;;;;;3.60;2.20;;;18.60;94.50;;;;;;5054296;28;20636;-74
2022/07/14 03:25:11;;;;;;;5.63;2.92;;;18.60;95.00;;;;;;5054330;28;20201;-75
2022/07/14 03:27:38;;;;;;;6.20;3.45;;;18.60;95.30;;;;;;5054351;28;20207;-74
2022/07/14 03:30:05;;;;;;;5.97;3.20;;;18.60;95.60;;;;;;5054609;28;20209;-75
2022/07/14 03:32:31;;;;;;;3.88;2.00;;;18.60;95.80;;;;;;5053467;28;20589;-74
2022/07/14 03:34:57;;;;;;;3.03;1.55;;;18.60;96.00;;;;;;5054214;28;20277;-75
2022/07/14 03:37:23;;;;;;;1.83;1.60;;;18.60;96.00;;;;;;5054612;28;20177;-74
2022/07/14 03:39:48;;;;;;;2.72;1.60;;;18.60;96.20;;;;;;5052565;28;20186;-74
2022/07/14 03:42:15;;;;;;;3.83;1.67;;;18.60;96.20;;;;;;5054532;28;20570;-74
2022/07/14 03:44:41;;;;;;;2.97;1.80;;;18.60;96.40;;;;;;5053253;28;20188;-74
2022/07/14 03:47:07;;;;;;;58.65;21.55;;;18.50;96.40;;;;;;5052906;28;20186;-72
2022/07/14 03:49:32;;;;;;;54.40;20.80;;;18.50;96.50;;;;;;5053617;28;20178;-71
2022/07/14 03:51:58;;;;;;;68.72;25.90;;;18.50;96.80;;;;;;5052462;28;20185;-72
2022/07/14 03:54:23;;;;;;;77.25;29.13;;;18.50;97.00;;;;;;5052232;28;20193;-71
2022/07/14 03:56:49;;;;;;;23.73;9.85;;;18.50;97.20;;;;;;5053379;28;20679;-72
2022/07/14 03:59:14;;;;;;;6.03;3.55;;;18.50;97.30;;;;;;5053048;28;20185;-72
2022/07/14 04:01:40;;;;;;;3.95;2.53;;;18.50;97.30;;;;;;5061141;28;20292;-72
2022/07/14 04:04:05;;;;;;;2.60;2.10;;;18.50;97.20;;;;;;5053451;28;20238;-71
2022/07/14 04:06:32;;;;;;;2.10;1.83;;;18.40;97.20;;;;;;5053353;28;20256;-72
2022/07/14 04:08:58;;;;;;;3.22;1.77;;;18.40;97.40;;;;;;5053119;28;20184;-76
2022/07/14 04:11:24;;;;;;;2.58;1.73;;;18.40;97.40;;;;;;5053367;28;20699;-74
2022/07/14 04:13:49;;;;;;;3.53;2.13;;;18.40;97.70;;;;;;5052913;28;20197;-77
2022/07/14 04:16:15;;;;;;;4.10;2.30;;;18.50;97.90;;;;;;5035453;28;20269;-73
2022/07/14 04:18:40;;;;;;;1.95;1.80;;;18.50;98.00;;;;;;5053748;28;20271;-72
2022/07/14 04:21:08;;;;;;;3.72;2.20;;;18.50;97.70;;;;;;5052491;28;20240;-79
2022/07/14 04:23:34;;;;;;;2.67;1.92;;;18.50;97.70;;;;;;5053560;28;20274;-78
2022/07/14 04:26:01;;;;;;;2.70;1.80;;;18.50;97.80;;;;;;5053866;28;20236;-80
2022/07/14 04:28:27;;;;;;;2.03;1.83;;;18.60;97.80;;;;;;5053155;28;20275;-76
2022/07/14 04:30:53;;;;;;;1.83;1.70;;;18.70;97.90;;;;;;5053197;28;20649;-75
2022/07/14 04:33:20;;;;;;;1.88;1.65;;;18.80;97.80;;;;;;5052175;28;20181;-74
2022/07/14 04:35:45;;;;;;;2.80;1.80;;;19.10;97.50;;;;;;5053005;28;20185;-66
2022/07/14 04:38:11;;;;;;;2.45;1.50;;;19.40;96.80;;;;;;5053076;28;20181;-74
2022/07/14 04:40:38;;;;;;;2.58;1.90;;;19.60;96.10;;;;;;5052264;28;20264;-78
2022/07/14 04:43:04;;;;;;;2.20;1.60;;;19.70;95.70;;;;;;5053083;28;20177;-77
2022/07/14 04:45:29;;;;;;;3.10;2.05;;;19.80;95.60;;;;;;5053116;28;20243;-80
2022/07/14 04:47:54;;;;;;;2.08;1.70;;;19.90;95.50;;;;;;5053499;28;20533;-81
2022/07/14 04:53:04;;;;;;;2.30;1.90;;;20.60;95.20;;;;;;5053254;28;20181;-78
2022/07/14 04:55:30;;;;;;;6.30;2.08;;;21.00;94.60;;;;;;5051812;28;20174;-78
2022/07/14 04:57:55;;;;;;;5.10;1.85;;;21.30;93.70;;;;;;5053149;28;20707;-78
2022/07/14 05:00:21;;;;;;;3.33;2.42;;;21.60;93.00;;;;;;5052864;28;20173;-77
2022/07/14 05:02:46;;;;;;;3.20;2.35;;;21.70;92.70;;;;;;5053004;28;20223;-77
2022/07/14 05:05:12;;;;;;;2.90;2.45;;;21.80;92.30;;;;;;5052248;28;20174;-77
2022/07/14 05:07:37;;;;;;;3.90;2.00;;;22.10;92.10;;;;;;5052974;28;20448;-77
2022/07/14 05:10:05;;;;;;;3.40;2.38;;;22.50;91.50;;;;;;5052747;28;20178;-77
2022/07/14 05:12:30;;;;;;;4.30;2.50;;;23.00;90.70;;;;;;5053078;28;20174;-77
2022/07/14 05:14:56;;;;;;;5.88;2.55;;;23.60;89.60;;;;;;5043295;28;20193;-78
2022/07/14 05:17:22;;;;;;;6.43;2.30;;;24.00;87.60;;;;;;5032632;28;20182;-78
2022/07/14 05:19:49;;;;;;;3.28;1.80;;;24.40;86.80;;;;;;5033497;28;20657;-77
2022/07/14 05:22:15;;;;;;;5.80;1.80;;;25.00;84.60;;;;;;5052504;28;20216;-78
2022/07/14 05:24:40;;;;;;;4.90;3.65;;;25.50;82.40;;;;;;5052579;28;20177;-78
2022/07/14 05:27:06;;;;;;;3.40;2.45;;;25.90;79.60;;;;;;5052486;28;20644;-77
2022/07/14 05:29:32;;;;;;;3.78;2.10;;;26.40;78.20;;;;;;5052575;28;20288;-77
2022/07/14 05:31:58;;;;;;;1.90;1.67;;;26.80;76.40;;;;;;5052523;28;20177;-77
2022/07/14 05:34:23;;;;;;;2.90;1.90;;;27.20;75.30;;;;;;5052508;28;20174;-77
2022/07/14 05:36:49;;;;;;;5.63;1.65;;;27.80;73.30;;;;;;5054194;28;20648;-78
2022/07/14 05:39:14;;;;;;;3.45;1.75;;;28.50;70.90;;;;;;5052439;28;20200;-78
2022/07/14 05:41:41;;;;;;;4.25;2.97;;;29.10;67.70;;;;;;5052018;28;20213;-77
2022/07/14 05:44:07;;;;;;;3.15;2.22;;;29.60;64.70;;;;;;5052335;28;20185;-76
2022/07/14 05:46:32;;;;;;;4.60;3.17;;;30.00;62.10;;;;;;5052229;28;20260;-77
2022/07/14 05:48:57;;;;;;;3.70;2.45;;;30.10;61.10;;;;;;5050968;28;20181;-77
2022/07/14 05:51:23;;;;;;;3.42;2.47;;;29.90;60.00;;;;;;5052201;28;20181;-77
2022/07/14 05:53:49;;;;;;;2.90;2.40;;;29.70;59.40;;;;;;5052366;28;20676;-77
2022/07/14 05:56:16;;;;;;;1.60;1.50;;;29.40;59.10;;;;;;5051410;28;20246;-76
2022/07/14 05:58:42;;;;;;;2.05;1.20;;;29.00;56.50;;;;;;5052063;28;20186;-76
2022/07/14 06:01:07;;;;;;;2.17;1.10;;;28.70;56.00;;;;;;5052018;28;20692;-75
2022/07/14 06:03:34;;;;;;;1.40;1.30;;;28.50;56.00;;;;;;5052020;28;20517;-76
2022/07/14 06:06:01;;;;;;;1.45;1.00;;;28.30;56.70;;;;;;5051927;28;20186;-75
2022/07/14 06:08:26;;;;;;;1.20;1.10;;;28.10;56.60;;;;;;5051919;28;20173;-75
2022/07/14 06:10:55;;;;;;;1.13;1.00;;;27.70;57.50;;;;;;5051840;28;20201;-75
2022/07/14 06:13:22;;;;;;;2.20;1.50;;;27.40;57.70;;;;;;5051785;28;20181;-77
2022/07/14 06:15:48;;;;;;;4.88;1.60;;;27.20;58.40;;;;;;5038951;28;20185;-77
2022/07/14 06:18:14;;;;;;;2.47;1.85;;;27.10;58.90;;;;;;5031894;28;20204;-76
2022/07/14 06:20:41;;;;;;;1.85;1.15;;;27.00;58.70;;;;;;5039597;28;20237;-76
2022/07/14 06:23:09;;;;;;;3.42;1.35;;;26.90;60.10;;;;;;5051631;28;20209;-75
2022/07/14 06:25:35;;;;;;;1.38;1.27;;;26.80;60.20;;;;;;5051735;28;20174;-77
2022/07/14 06:28:01;;;;;;;1.60;1.45;;;26.80;61.90;;;;;;5051713;28;20193;-76
2022/07/14 06:30:26;;;;;;;1.65;1.00;;;26.70;62.00;;;;;;5053048;28;20178;-76
2022/07/14 06:32:51;;;;;;;3.42;1.40;;;26.90;63.00;;;;;;5051807;28;20181;-77
2022/07/14 06:35:17;;;;;;;5.15;3.00;;;27.20;62.20;;;;;;5051593;28;20625;-77
2022/07/14 06:37:42;;;;;;;3.40;1.50;;;27.20;61.40;;;;;;5051735;28;20285;-76
2022/07/14 06:40:08;;;;;;;2.75;1.23;;;27.10;61.60;;;;;;5051598;28;20253;-75
2022/07/14 06:42:34;;;;;;;2.47;1.10;;;26.90;61.10;;;;;;5051594;28;20251;-77
2022/07/14 06:45:00;;;;;;;2.50;1.77;;;26.80;61.70;;;;;;5051463;28;20201;-77
2022/07/14 06:47:25;;;;;;;1.15;1.05;;;26.80;62.60;;;;;;5051609;28;20205;-77
2022/07/14 06:49:51;;;;;;;3.58;1.55;;;26.80;62.40;;;;;;5051635;28;20178;-76
2022/07/14 06:52:16;;;;;;;2.35;1.70;;;26.90;65.40;;;;;;5051383;28;20177;-77
2022/07/14 06:54:43;;;;;;;3.10;2.30;;;27.10;67.10;;;;;;5051455;28;20636;-76
2022/07/14 06:57:08;;;;;;;1.70;1.60;;;27.50;67.20;;;;;;5051371;28;20538;-76
2022/07/14 06:59:34;;;;;;;2.50;1.67;;;27.90;66.20;;;;;;5051544;28;20181;-76
2022/07/14 07:01:59;;;;;;;1.63;1.50;;;28.90;66.30;;;;;;5051276;28;20209;-77
2022/07/14 07:04:25;;;;;;;2.13;1.50;;;30.60;64.30;;;;;;5051415;28;20520;-75
2022/07/14 07:06:51;;;;;;;3.47;1.52;;;32.10;60.70;;;;;;5051524;28;20232;-77
2022/07/14 07:09:19;;;;;;;2.30;1.65;;;33.00;57.00;;;;;;5050419;28;20268;-77
2022/07/14 07:11:49;;;;;;;2.83;1.90;;;33.30;56.00;;;;;;5051535;28;20703;-78
2022/07/14 07:14:15;;;;;;;1.85;1.30;;;33.20;54.30;;;;;;5051354;28;20564;-79
2022/07/14 07:16:40;;;;;;;2.53;1.25;;;33.30;51.40;;;;;;5031553;28;20184;-80
2022/07/14 07:19:06;;;;;;;1.50;1.40;;;33.60;50.00;;;;;;5031461;28;20181;-77
2022/07/14 07:21:31;;;;;;;1.75;1.00;;;34.30;49.90;;;;;;5046406;28;20298;-78
2022/07/14 07:23:57;;;;;;;2.75;1.38;;;35.00;49.10;;;;;;5051199;28;20173;-80
2022/07/14 07:26:25;;;;;;;3.45;1.30;;;36.00;48.00;;;;;;5051066;28;20188;-79
2022/07/14 07:28:52;;;;;;;3.10;1.10;;;36.80;45.20;;;;;;5052871;28;20169;-79
2022/07/14 07:31:18;;;;;;;1.80;0.90;;;36.70;42.30;;;;;;5054618;28;20180;-79
2022/07/14 07:33:45;;;;;;;1.80;1.00;;;36.20;42.60;;;;;;5054826;28;20173;-80
2022/07/14 07:36:11;;;;;;;4.05;1.00;;;35.70;43.20;;;;;;5054762;28;20253;-78
2022/07/14 07:38:36;;;;;;;2.60;1.05;;;35.40;43.90;;;;;;5054584;28;20542;-79
2022/07/14 07:41:02;;;;;;;1.40;1.08;;;35.40;45.20;;;;;;5054468;28;20212;-79
2022/07/14 07:43:28;;;;;;;0.98;0.98;;;35.80;44.70;;;;;;5054405;28;20189;-78
2022/07/14 07:45:53;;;;;;;1.05;1.05;;;36.40;43.60;;;;;;5054616;28;20176;-79
2022/07/14 07:48:19;;;;;;;5.32;1.13;;;37.30;43.30;;;;;;5054187;28;20268;-78
2022/07/14 07:50:45;;;;;;;1.58;1.15;;;37.90;43.00;;;;;;5054495;28;20584;-78
2022/07/14 07:53:11;;;;;;;4.00;1.10;;;38.40;42.10;;;;;;5054330;28;20176;-79
2022/07/14 07:55:38;;;;;;;1.10;0.95;;;38.70;40.70;;;;;;5054366;28;20187;-78
2022/07/14 07:58:04;;;;;;;2.47;1.20;;;38.70;40.80;;;;;;5054383;28;20545;-81
2022/07/14 08:00:30;;;;;;;5.70;3.97;;;38.50;41.00;;;;;;5054007;28;20188;-81
2022/07/14 08:02:57;;;;;;;3.00;2.10;;;38.40;41.20;;;;;;5054088;28;20180;-79
2022/07/14 08:05:25;;;;;;;1.80;1.50;;;38.00;40.70;;;;;;5054034;28;20177;-79
2022/07/14 08:07:52;;;;;;;2.45;1.20;;;37.80;41.20;;;;;;5052969;28;20204;-79
2022/07/14 08:10:17;;;;;;;2.08;1.13;;;38.00;41.40;;;;;;5054029;28;20782;-78
2022/07/14 08:12:44;;;;;;;3.90;1.40;;;38.30;40.70;;;;;;5054196;28;20263;-78
2022/07/14 08:15:10;;;;;;;2.55;1.17;;;38.80;40.20;;;;;;5046477;28;20247;-77
2022/07/14 08:17:36;;;;;;;1.48;1.27;;;39.40;38.90;;;;;;5033939;28;20261;-77
2022/07/14 08:20:03;;;;;;;2.30;1.17;;;39.70;38.10;;;;;;5036516;28;20173;-77
2022/07/14 08:22:29;;;;;;;1.35;1.20;;;39.30;37.90;;;;;;5053749;28;20208;-78
2022/07/14 08:24:55;;;;;;;1.33;1.20;;;39.10;38.40;;;;;;5053827;28;20226;-78
2022/07/14 08:27:22;;;;;;;1.20;1.10;;;38.90;38.50;;;;;;5053519;28;20181;-78
2022/07/14 08:29:48;;;;;;;2.45;1.10;;;38.20;38.10;;;;;;5053541;28;20631;-79
2022/07/14 08:32:14;;;;;;;1.25;1.10;;;37.90;38.20;;;;;;5054376;28;20624;-78
2022/07/14 08:34:39;;;;;;;1.15;1.00;;;37.50;37.70;;;;;;5053445;28;20177;-77
2022/07/14 08:37:06;;;;;;;1.88;1.23;;;36.80;37.80;;;;;;5053527;28;20210;-79
2022/07/14 08:39:32;;;;;;;2.58;1.27;;;36.20;39.90;;;;;;5053379;28;20180;-78
2022/07/14 08:42:00;;;;;;;1.58;1.10;;;35.60;39.90;;;;;;5053258;28;20239;-77
2022/07/14 08:44:26;;;;;;;3.25;1.20;;;35.00;40.70;;;;;;5053346;28;20682;-78
2022/07/14 08:46:56;;;;;;;1.92;1.38;;;34.50;42.10;;;;;;5053513;28;20187;-78
2022/07/14 08:49:22;;;;;;;2.08;1.23;;;34.60;43.10;;;;;;5053078;28;20223;-76
2022/07/14 08:51:49;;;;;;;2.53;1.20;;;35.00;44.50;;;;;;5053272;28;20177;-76
2022/07/14 08:54:16;;;;;;;1.85;1.13;;;35.70;43.60;;;;;;5053186;28;20222;-75
2022/07/14 08:56:41;;;;;;;1.63;1.17;;;35.80;41.90;;;;;;5053130;28;20185;-77
2022/07/14 08:59:08;;;;;;;2.55;1.20;;;35.70;42.60;;;;;;5053171;28;20230;-75
2022/07/14 09:01:33;;;;;;;2.75;1.20;;;35.80;42.30;;;;;;5053190;28;20733;-76
2022/07/14 09:03:59;;;;;;;2.97;1.10;;;35.90;42.30;;;;;;5052986;28;20172;-76
2022/07/14 09:06:44;;;;;;;1.58;1.30;;;35.60;40.20;;;;;;5052997;28;20640;-76
2022/07/14 09:09:16;;;;;;;1.15;1.10;;;35.30;41.30;;;;;;5052959;28;20259;-76
2022/07/14 09:12:13;;;;;;;3.83;1.27;;;35.50;41.90;;;;;;5052790;28;20659;-76
2022/07/14 09:17:49;;;;;;;3.10;1.20;;;35.80;41.00;;;;;;5033045;28;20652;-77
2022/07/14 09:20:15;;;;;;;1.20;1.10;;;35.90;41.40;;;;;;5037107;28;20293;-77
2022/07/14 09:22:42;;;;;;;3.42;1.40;;;36.10;40.50;;;;;;5052609;28;20663;-76
2022/07/14 09:25:16;;;;;;;1.55;1.45;;;36.20;39.80;;;;;;5052631;28;20215;-78
2022/07/14 09:27:45;;;;;;;4.53;1.50;;;36.30;40.20;;;;;;5052467;28;20200;-78
2022/07/14 09:30:11;;;;;;;2.22;1.10;;;36.60;40.20;;;;;;5052464;28;20185;-78
2022/07/14 09:32:53;;;;;;;1.15;1.05;;;37.00;39.30;;;;;;5052561;28;20260;-78
2022/07/14 09:35:21;;;;;;;2.78;1.20;;;37.50;39.60;;;;;;5052150;28;20185;-77
2022/07/14 09:37:49;;;;;;;1.60;1.00;;;37.70;38.40;;;;;;5052392;28;20306;-77
2022/07/14 09:40:35;;;;;;;2.15;1.10;;;37.70;38.00;;;;;;5052294;28;20219;-77
2022/07/14 09:43:03;;;;;;;1.58;1.20;;;37.80;37.90;;;;;;5051970;28;20200;-75
2022/07/14 09:45:34;;;;;;;3.65;1.20;;;37.60;37.80;;;;;;5052181;28;20165;-74
2022/07/14 09:48:19;;;;;;;4.22;1.50;;;37.80;37.60;;;;;;5052076;28;20267;-75
2022/07/14 09:50:47;;;;;;;1.05;1.00;;;37.70;38.00;;;;;;5051734;28;20632;-75
2022/07/14 09:53:29;;;;;;;1.48;1.38;;;37.70;38.40;;;;;;5052006;28;20169;-76
2022/07/14 09:55:58;;;;;;;2.85;1.23;;;37.70;38.90;;;;;;5052142;28;20176;-76
2022/07/14 09:58:27;;;;;;;1.38;1.27;;;37.50;37.70;;;;;;5052036;28;20177;-77
2022/07/14 10:01:03;;;;;;;2.80;1.42;;;37.40;39.10;;;;;;5052027;28;20225;-77
2022/07/14 10:03:30;;;;;;;2.40;1.17;;;37.40;38.80;;;;;;5052102;28;20582;-78
2022/07/14 10:05:59;;;;;;;1.30;1.20;;;37.30;38.10;;;;;;5051930;28;20656;-77
2022/07/14 10:08:29;;;;;;;2.53;1.10;;;37.20;38.90;;;;;;5051918;28;20184;-77
2022/07/14 10:10:57;;;;;;;1.52;1.30;;;37.30;39.60;;;;;;5051932;28;20185;-76
2022/07/14 10:13:24;;;;;;;4.43;1.67;;;37.40;39.20;;;;;;5051893;28;20177;-76
2022/07/14 10:15:52;;;;;;;1.70;1.45;;;37.50;39.40;;;;;;5038944;28;20186;-78
2022/07/14 10:18:18;;;;;;;2.90;1.35;;;37.60;39.10;;;;;;5031840;28;20177;-77
2022/07/14 10:20:46;;;;;;;2.08;1.52;;;37.30;38.30;;;;;;5040192;28;20703;-76
2022/07/14 10:23:12;;;;;;;1.50;1.40;;;37.30;39.20;;;;;;5051596;28;20185;-75
2022/07/14 10:25:40;;;;;;;3.50;1.20;;;37.50;40.10;;;;;;5051789;28;20180;-75
2022/07/14 10:28:06;;;;;;;1.67;1.38;;;37.50;39.00;;;;;;5051808;28;20187;-75
2022/07/14 10:31:04;;;;;;;1.33;1.23;;;37.50;37.80;;;;;;5051588;28;20181;-76
2022/07/14 10:33:56;;;;;;;1.70;1.40;;;37.30;37.80;;;;;;5051342;28;20197;-76
2022/07/14 10:36:41;;;;;;;2.65;1.40;;;37.40;38.40;;;;;;5051503;28;20214;-76
2022/07/14 10:39:33;;;;;;;5.85;1.50;;;37.00;38.10;;;;;;5051681;28;20180;-74
2022/07/14 10:42:20;;;;;;;2.75;1.27;;;36.60;38.60;;;;;;5051484;28;20277;-73
2022/07/14 10:44:47;;;;;;;1.65;1.55;;;36.30;39.60;;;;;;5051667;28;20184;-74
2022/07/14 10:47:15;;;;;;;4.07;1.50;;;35.90;39.80;;;;;;5051394;28;20207;-74
2022/07/14 10:50:09;;;;;;;4.00;1.73;;;35.90;40.30;;;;;;5051450;28;20181;-73
2022/07/14 10:52:53;;;;;;;1.42;1.33;;;36.00;40.90;;;;;;5051591;28;20534;-74
2022/07/14 10:55:21;;;;;;;1.50;1.40;;;36.30;41.50;;;;;;5051237;28;20640;-73
2022/07/14 10:57:59;;;;;;;7.35;1.45;;;36.40;39.70;;;;;;5051371;28;20673;-74
2022/07/14 11:00:43;;;;;;;3.10;1.50;;;36.50;40.20;;;;;;5051192;28;20218;-73
2022/07/14 11:03:24;;;;;;;7.13;1.92;;;36.70;40.50;;;;;;5052051;28;20235;-72
2022/07/14 11:06:08;;;;;;;4.32;1.60;;;37.00;39.50;;;;;;5055445;28;20173;-73
2022/07/14 11:08:36;;;;;;;2.67;1.40;;;37.30;38.70;;;;;;5055397;28;20187;-73
2022/07/14 11:11:04;;;;;;;2.13;1.38;;;37.40;38.70;;;;;;5055134;28;20185;-73
2022/07/14 11:13:30;;;;;;;2.38;1.15;;;37.60;37.80;;;;;;5055128;28;20203;-73
2022/07/14 11:16:02;;;;;;;1.10;1.10;;;37.10;37.00;;;;;;5041296;28;20516;-73
2022/07/14 11:18:34;;;;;;;6.88;1.40;;;36.90;38.20;;;;;;5034964;28;20243;-73
2022/07/14 11:21:13;;;;;;;6.50;1.38;;;36.70;37.40;;;;;;5045447;28;20225;-73
2022/07/14 11:23:50;;;;;;;1.52;1.33;;;36.80;39.10;;;;;;5054981;28;20191;-73
2022/07/14 11:26:35;;;;;;;1.90;1.30;;;36.90;38.60;;;;;;5054771;28;20272;-73
2022/07/14 11:29:02;;;;;;;1.50;1.20;;;37.10;39.20;;;;;;5054709;28;20173;-72
2022/07/14 11:31:51;;;;;;;2.60;1.33;;;37.10;38.20;;;;;;5054702;28;20184;-74
2022/07/14 11:37:16;;;;;;;1.35;1.25;;;37.20;37.50;;;;;;5054867;28;20627;-72
2022/07/14 11:39:44;;;;;;;1.67;1.25;;;37.20;38.00;;;;;;5054631;28;20199;-72
2022/07/14 11:42:14;;;;;;;4.68;1.38;;;37.10;37.40;;;;;;5054492;28;20223;-72
2022/07/14 11:44:39;;;;;;;2.35;1.30;;;37.10;38.00;;;;;;5054492;28;20176;-73
2022/07/14 11:47:15;;;;;;;4.35;1.42;;;37.20;38.20;;;;;;5054510;28;20185;-74
2022/07/14 11:49:42;;;;;;;3.63;1.33;;;37.50;37.70;;;;;;5054470;28;20180;-72
2022/07/14 11:52:09;;;;;;;1.60;1.50;;;37.40;37.20;;;;;;5053209;28;20643;-72
2022/07/14 11:54:34;;;;;;;1.52;1.17;;;37.30;37.00;;;;;;5054320;28;20169;-72
2022/07/14 11:57:10;;;;;;;2.60;1.20;;;37.20;37.20;;;;;;5054186;28;20181;-72
2022/07/14 11:59:41;;;;;;;1.98;1.38;;;36.90;37.30;;;;;;5054234;28;20531;-71
2022/07/14 12:02:14;;;;;;;3.58;1.27;;;36.60;36.60;;;;;;5054252;28;20221;-71
2022/07/14 12:04:52;;;;;;;2.50;1.10;;;36.60;37.90;;;;;;5054117;28;20177;-72
2022/07/14 12:07:20;;;;;;;1.92;1.23;;;36.60;37.40;;;;;;5053887;28;20631;-72
2022/07/14 12:09:46;;;;;;;2.00;1.15;;;36.40;37.20;;;;;;5054219;28;20188;-72
2022/07/14 12:12:13;;;;;;;3.40;1.45;;;36.20;38.00;;;;;;5053869;28;20184;-72
2022/07/14 12:14:52;;;;;;;3.17;1.42;;;36.00;38.70;;;;;;5050670;28;20247;-74
2022/07/14 12:17:20;;;;;;;2.75;1.40;;;36.00;38.90;;;;;;5033948;28;20711;-72
2022/07/14 12:19:47;;;;;;;1.92;1.30;;;36.00;38.80;;;;;;5034647;28;20185;-72
2022/07/14 12:22:15;;;;;;;3.58;1.35;;;36.00;39.30;;;;;;5053729;28;20282;-72
2022/07/14 12:24:40;;;;;;;3.97;1.65;;;36.20;39.60;;;;;;5053687;28;20658;-73
2022/07/14 12:27:09;;;;;;;1.90;1.20;;;35.90;38.60;;;;;;5053855;28;20184;-72
2022/07/14 12:29:44;;;;;;;2.25;1.55;;;35.70;39.00;;;;;;5053706;28;20173;-73
2022/07/14 12:32:09;;;;;;;2.60;1.80;;;35.70;39.90;;;;;;5052649;28;20267;-72
2022/07/14 12:34:36;;;;;;;4.75;1.60;;;35.80;39.80;;;;;;5053812;28;20265;-72
2022/07/14 12:37:03;;;;;;;3.60;2.03;;;36.00;40.40;;;;;;5053484;28;20192;-73
2022/07/14 12:39:29;;;;;;;1.95;1.35;;;36.30;40.00;;;;;;5053516;28;20173;-73
2022/07/14 12:41:55;;;;;;;1.55;1.23;;;36.70;39.40;;;;;;5053383;28;20265;-71
2022/07/14 12:44:21;;;;;;;3.92;1.50;;;36.60;39.70;;;;;;5053264;28;20576;-72
2022/07/14 12:47:15;;;;;;;1.45;1.35;;;36.40;39.50;;;;;;5053457;28;20521;-73
2022/07/14 12:49:43;;;;;;;1.35;1.25;;;36.40;39.70;;;;;;5053313;28;20173;-71
2022/07/14 12:52:08;;;;;;;1.50;1.40;;;36.30;39.90;;;;;;5053272;28;20184;-71
2022/07/14 12:54:34;;;;;;;4.07;1.50;;;36.40;39.90;;;;;;5053255;28;20181;-72
2022/07/14 12:57:00;;;;;;;3.17;1.33;;;36.40;39.50;;;;;;5053093;28;20172;-72
2022/07/14 12:59:36;;;;;;;2.88;1.30;;;36.50;39.70;;;;;;5053209;28;20185;-72